sensor_id;sensor_type;location;lat;lon;timestamp;P1;durP1;ratioP1;P2;durP2;ratioP2
11839;SDS011;5979;50.800;4.904;2023-08-12T00:00:06;5.75;;;4.47;;
11839;SDS011;5979;50.800;4.904;2023-08-12T00:02:36;5.43;;;4.07;;
11839;SDS011;5979;50.800;4.904;2023-08-12T00:05:09;4.25;;;3.95;;
11839;SDS011;5979;50.800;4.904;2023-08-12T00:07:39;5.13;;;4.53;;
11839;SDS011;5979;50.800;4.904;2023-08-12T00:10:09;4.72;;;4.32;;
11839;SDS011;5979;50.800;4.904;2023-08-12T00:12:37;5.05;;;4.65;;
11839;SDS011;5979;50.800;4.904;2023-08-12T00:15:03;6.35;;;5.18;;
11839;SDS011;5979;50.800;4.904;2023-08-12T00:17:31;8.90;;;5.32;;
11839;SDS011;5979;50.800;4.904;2023-08-12T00:19:57;5.97;;;4.95;;
11839;SDS011;5979;50.800;4.904;2023-08-12T00:22:23;6.13;;;5.57;;
11839;SDS011;5979;50.800;4.904;2023-08-12T00:24:49;6.68;;;4.90;;
11839;SDS011;5979;50.800;4.904;2023-08-12T00:27:15;5.18;;;4.63;;
11839;SDS011;5979;50.800;4.904;2023-08-12T00:29:40;8.40;;;5.43;;
11839;SDS011;5979;50.800;4.904;2023-08-12T00:32:08;4.72;;;4.40;;
11839;SDS011;5979;50.800;4.904;2023-08-12T00:34:34;4.80;;;4.30;;
11839;SDS011;5979;50.800;4.904;2023-08-12T00:36:59;5.43;;;4.93;;
11839;SDS011;5979;50.800;4.904;2023-08-12T00:39:25;5.45;;;4.95;;
11839;SDS011;5979;50.800;4.904;2023-08-12T00:41:51;5.03;;;4.47;;
11839;SDS011;5979;50.800;4.904;2023-08-12T00:44:17;7.85;;;5.50;;
11839;SDS011;5979;50.800;4.904;2023-08-12T00:46:43;5.65;;;5.25;;
11839;SDS011;5979;50.800;4.904;2023-08-12T00:49:09;6.22;;;5.53;;
11839;SDS011;5979;50.800;4.904;2023-08-12T00:51:37;6.93;;;5.85;;
11839;SDS011;5979;50.800;4.904;2023-08-12T00:54:07;5.70;;;5.13;;
11839;SDS011;5979;50.800;4.904;2023-08-12T00:56:36;7.47;;;6.03;;
11839;SDS011;5979;50.800;4.904;2023-08-12T00:59:02;6.78;;;6.03;;
11839;SDS011;5979;50.800;4.904;2023-08-12T01:01:30;6.72;;;6.22;;
11839;SDS011;5979;50.800;4.904;2023-08-12T01:03:56;8.68;;;6.07;;
11839;SDS011;5979;50.800;4.904;2023-08-12T01:06:23;5.60;;;5.07;;
11839;SDS011;5979;50.800;4.904;2023-08-12T01:08:49;6.70;;;5.65;;
11839;SDS011;5979;50.800;4.904;2023-08-12T01:11:26;6.70;;;6.10;;
11839;SDS011;5979;50.800;4.904;2023-08-12T01:16:42;10.18;;;6.70;;
11839;SDS011;5979;50.800;4.904;2023-08-12T01:19:11;9.27;;;7.07;;
11839;SDS011;5979;50.800;4.904;2023-08-12T01:21:53;6.57;;;5.97;;
11839;SDS011;5979;50.800;4.904;2023-08-12T01:24:24;6.88;;;6.20;;
11839;SDS011;5979;50.800;4.904;2023-08-12T01:26:50;6.00;;;5.40;;
11839;SDS011;5979;50.800;4.904;2023-08-12T01:29:16;5.28;;;4.80;;
11839;SDS011;5979;50.800;4.904;2023-08-12T01:31:48;7.20;;;5.68;;
11839;SDS011;5979;50.800;4.904;2023-08-12T01:34:39;10.68;;;6.53;;
11839;SDS011;5979;50.800;4.904;2023-08-12T01:37:06;7.80;;;6.68;;
11839;SDS011;5979;50.800;4.904;2023-08-12T01:39:35;12.75;;;7.20;;
11839;SDS011;5979;50.800;4.904;2023-08-12T01:42:01;12.15;;;6.50;;
11839;SDS011;5979;50.800;4.904;2023-08-12T01:44:28;10.63;;;7.22;;
11839;SDS011;5979;50.800;4.904;2023-08-12T01:46:53;16.17;;;6.22;;
11839;SDS011;5979;50.800;4.904;2023-08-12T01:49:20;6.43;;;5.82;;
11839;SDS011;5979;50.800;4.904;2023-08-12T01:51:48;8.32;;;6.28;;
11839;SDS011;5979;50.800;4.904;2023-08-12T01:54:13;7.13;;;5.45;;
11839;SDS011;5979;50.800;4.904;2023-08-12T01:56:39;5.75;;;4.78;;
11839;SDS011;5979;50.800;4.904;2023-08-12T01:59:05;5.65;;;5.25;;
11839;SDS011;5979;50.800;4.904;2023-08-12T02:01:30;6.05;;;5.45;;
11839;SDS011;5979;50.800;4.904;2023-08-12T02:03:56;5.25;;;4.88;;
11839;SDS011;5979;50.800;4.904;2023-08-12T02:06:21;5.75;;;5.07;;
11839;SDS011;5979;50.800;4.904;2023-08-12T02:08:47;7.05;;;6.00;;
11839;SDS011;5979;50.800;4.904;2023-08-12T02:11:13;8.05;;;6.50;;
11839;SDS011;5979;50.800;4.904;2023-08-12T02:13:38;6.07;;;5.47;;
11839;SDS011;5979;50.800;4.904;2023-08-12T02:16:04;6.40;;;5.75;;
11839;SDS011;5979;50.800;4.904;2023-08-12T02:18:30;10.00;;;6.30;;
11839;SDS011;5979;50.800;4.904;2023-08-12T02:20:55;5.85;;;5.43;;
11839;SDS011;5979;50.800;4.904;2023-08-12T02:23:21;8.45;;;6.03;;
11839;SDS011;5979;50.800;4.904;2023-08-12T02:25:46;6.40;;;5.80;;
11839;SDS011;5979;50.800;4.904;2023-08-12T02:28:12;6.38;;;5.82;;
11839;SDS011;5979;50.800;4.904;2023-08-12T02:30:38;5.53;;;5.03;;
11839;SDS011;5979;50.800;4.904;2023-08-12T02:33:04;5.88;;;5.30;;
11839;SDS011;5979;50.800;4.904;2023-08-12T02:35:29;5.70;;;5.30;;
11839;SDS011;5979;50.800;4.904;2023-08-12T02:37:55;6.45;;;5.70;;
11839;SDS011;5979;50.800;4.904;2023-08-12T02:40:20;6.38;;;5.28;;
11839;SDS011;5979;50.800;4.904;2023-08-12T02:42:46;7.68;;;5.22;;
11839;SDS011;5979;50.800;4.904;2023-08-12T02:45:12;6.75;;;6.07;;
11839;SDS011;5979;50.800;4.904;2023-08-12T02:47:37;7.07;;;6.40;;
11839;SDS011;5979;50.800;4.904;2023-08-12T02:50:03;7.68;;;6.50;;
11839;SDS011;5979;50.800;4.904;2023-08-12T02:52:29;8.50;;;5.38;;
11839;SDS011;5979;50.800;4.904;2023-08-12T02:54:55;7.13;;;6.40;;
11839;SDS011;5979;50.800;4.904;2023-08-12T02:57:21;9.73;;;6.30;;
11839;SDS011;5979;50.800;4.904;2023-08-12T02:59:47;6.93;;;5.75;;
11839;SDS011;5979;50.800;4.904;2023-08-12T03:02:12;5.85;;;5.35;;
11839;SDS011;5979;50.800;4.904;2023-08-12T03:04:38;5.72;;;5.28;;
11839;SDS011;5979;50.800;4.904;2023-08-12T03:07:03;5.70;;;5.07;;
11839;SDS011;5979;50.800;4.904;2023-08-12T03:09:29;6.05;;;5.45;;
11839;SDS011;5979;50.800;4.904;2023-08-12T03:11:55;6.35;;;5.35;;
11839;SDS011;5979;50.800;4.904;2023-08-12T03:14:20;5.68;;;5.20;;
11839;SDS011;5979;50.800;4.904;2023-08-12T03:16:46;5.65;;;5.15;;
11839;SDS011;5979;50.800;4.904;2023-08-12T03:19:12;5.72;;;4.97;;
11839;SDS011;5979;50.800;4.904;2023-08-12T03:21:37;8.55;;;5.90;;
11839;SDS011;5979;50.800;4.904;2023-08-12T03:24:03;5.65;;;5.18;;
11839;SDS011;5979;50.800;4.904;2023-08-12T03:26:29;8.00;;;5.57;;
11839;SDS011;5979;50.800;4.904;2023-08-12T03:28:55;5.93;;;4.97;;
11839;SDS011;5979;50.800;4.904;2023-08-12T03:31:20;6.82;;;5.38;;
11839;SDS011;5979;50.800;4.904;2023-08-12T03:33:46;9.48;;;6.20;;
11839;SDS011;5979;50.800;4.904;2023-08-12T03:36:12;5.65;;;5.15;;
11839;SDS011;5979;50.800;4.904;2023-08-12T03:38:37;6.82;;;5.60;;
11839;SDS011;5979;50.800;4.904;2023-08-12T03:41:03;5.35;;;4.85;;
11839;SDS011;5979;50.800;4.904;2023-08-12T03:43:29;6.28;;;5.60;;
11839;SDS011;5979;50.800;4.904;2023-08-12T03:45:55;8.27;;;5.22;;
11839;SDS011;5979;50.800;4.904;2023-08-12T03:48:21;5.70;;;5.03;;
11839;SDS011;5979;50.800;4.904;2023-08-12T03:50:47;6.40;;;5.50;;
11839;SDS011;5979;50.800;4.904;2023-08-12T03:53:12;6.57;;;5.13;;
11839;SDS011;5979;50.800;4.904;2023-08-12T03:55:38;7.70;;;4.57;;
11839;SDS011;5979;50.800;4.904;2023-08-12T03:58:04;5.85;;;5.35;;
11839;SDS011;5979;50.800;4.904;2023-08-12T04:00:30;5.18;;;4.68;;
11839;SDS011;5979;50.800;4.904;2023-08-12T04:02:56;5.88;;;5.43;;
11839;SDS011;5979;50.800;4.904;2023-08-12T04:05:21;7.40;;;6.15;;
11839;SDS011;5979;50.800;4.904;2023-08-12T04:07:48;6.10;;;5.40;;
11839;SDS011;5979;50.800;4.904;2023-08-12T04:10:14;8.68;;;5.78;;
11839;SDS011;5979;50.800;4.904;2023-08-12T04:12:40;6.75;;;5.60;;
11839;SDS011;5979;50.800;4.904;2023-08-12T04:15:07;6.70;;;6.10;;
11839;SDS011;5979;50.800;4.904;2023-08-12T04:17:33;6.20;;;5.60;;
11839;SDS011;5979;50.800;4.904;2023-08-12T04:19:59;6.03;;;5.60;;
11839;SDS011;5979;50.800;4.904;2023-08-12T04:22:24;5.68;;;5.28;;
11839;SDS011;5979;50.800;4.904;2023-08-12T04:24:51;6.25;;;5.75;;
11839;SDS011;5979;50.800;4.904;2023-08-12T04:27:17;8.35;;;5.50;;
11839;SDS011;5979;50.800;4.904;2023-08-12T04:29:42;6.00;;;5.50;;
11839;SDS011;5979;50.800;4.904;2023-08-12T04:32:10;6.22;;;5.70;;
11839;SDS011;5979;50.800;4.904;2023-08-12T04:34:36;6.20;;;5.72;;
11839;SDS011;5979;50.800;4.904;2023-08-12T04:37:02;5.50;;;4.80;;
11839;SDS011;5979;50.800;4.904;2023-08-12T04:39:28;5.93;;;5.43;;
11839;SDS011;5979;50.800;4.904;2023-08-12T04:41:53;7.32;;;5.93;;
11839;SDS011;5979;50.800;4.904;2023-08-12T04:44:19;6.70;;;6.07;;
11839;SDS011;5979;50.800;4.904;2023-08-12T04:46:44;6.00;;;5.45;;
11839;SDS011;5979;50.800;4.904;2023-08-12T04:49:12;6.18;;;5.45;;
11839;SDS011;5979;50.800;4.904;2023-08-12T04:51:37;6.93;;;6.00;;
11839;SDS011;5979;50.800;4.904;2023-08-12T04:54:03;7.10;;;6.47;;
11839;SDS011;5979;50.800;4.904;2023-08-12T04:56:29;5.95;;;5.45;;
11839;SDS011;5979;50.800;4.904;2023-08-12T04:58:55;6.88;;;6.28;;
11839;SDS011;5979;50.800;4.904;2023-08-12T05:01:21;7.18;;;5.65;;
11839;SDS011;5979;50.800;4.904;2023-08-12T05:03:46;6.20;;;5.63;;
11839;SDS011;5979;50.800;4.904;2023-08-12T05:06:12;5.68;;;5.18;;
11839;SDS011;5979;50.800;4.904;2023-08-12T05:08:38;6.38;;;5.75;;
11839;SDS011;5979;50.800;4.904;2023-08-12T05:11:03;6.18;;;5.47;;
11839;SDS011;5979;50.800;4.904;2023-08-12T05:13:29;8.30;;;5.88;;
11839;SDS011;5979;50.800;4.904;2023-08-12T05:15:55;10.48;;;5.53;;
11839;SDS011;5979;50.800;4.904;2023-08-12T05:18:21;6.18;;;5.57;;
11839;SDS011;5979;50.800;4.904;2023-08-12T05:20:51;5.65;;;5.15;;
11839;SDS011;5979;50.800;4.904;2023-08-12T05:23:17;6.22;;;5.68;;
11839;SDS011;5979;50.800;4.904;2023-08-12T05:25:45;5.35;;;4.85;;
11839;SDS011;5979;50.800;4.904;2023-08-12T05:28:11;5.43;;;4.95;;
11839;SDS011;5979;50.800;4.904;2023-08-12T05:30:36;5.10;;;4.70;;
11839;SDS011;5979;50.800;4.904;2023-08-12T05:33:03;4.97;;;4.57;;
11839;SDS011;5979;50.800;4.904;2023-08-12T05:35:33;6.45;;;4.50;;
11839;SDS011;5979;50.800;4.904;2023-08-12T05:37:59;4.18;;;3.85;;
11839;SDS011;5979;50.800;4.904;2023-08-12T05:40:24;4.90;;;4.10;;
11839;SDS011;5979;50.800;4.904;2023-08-12T05:42:50;3.28;;;2.97;;
11839;SDS011;5979;50.800;4.904;2023-08-12T05:45:16;4.15;;;3.20;;
11839;SDS011;5979;50.800;4.904;2023-08-12T05:47:41;3.35;;;3.03;;
11839;SDS011;5979;50.800;4.904;2023-08-12T05:50:07;3.20;;;2.95;;
11839;SDS011;5979;50.800;4.904;2023-08-12T05:52:33;2.95;;;2.75;;
11839;SDS011;5979;50.800;4.904;2023-08-12T05:54:59;3.30;;;3.00;;
11839;SDS011;5979;50.800;4.904;2023-08-12T05:57:24;3.50;;;2.85;;
11839;SDS011;5979;50.800;4.904;2023-08-12T05:59:50;2.75;;;2.65;;
11839;SDS011;5979;50.800;4.904;2023-08-12T06:02:16;4.20;;;2.85;;
11839;SDS011;5979;50.800;4.904;2023-08-12T06:04:42;2.45;;;2.25;;
11839;SDS011;5979;50.800;4.904;2023-08-12T06:07:07;2.22;;;2.13;;
11839;SDS011;5979;50.800;4.904;2023-08-12T06:09:33;2.53;;;2.33;;
11839;SDS011;5979;50.800;4.904;2023-08-12T06:11:59;2.67;;;2.42;;
11839;SDS011;5979;50.800;4.904;2023-08-12T06:14:24;2.35;;;2.20;;
11839;SDS011;5979;50.800;4.904;2023-08-12T06:16:50;2.58;;;2.45;;
11839;SDS011;5979;50.800;4.904;2023-08-12T06:19:16;1.83;;;1.73;;
11839;SDS011;5979;50.800;4.904;2023-08-12T06:21:41;1.85;;;1.75;;
11839;SDS011;5979;50.800;4.904;2023-08-12T06:24:07;2.75;;;1.98;;
11839;SDS011;5979;50.800;4.904;2023-08-12T06:26:33;2.03;;;1.92;;
11839;SDS011;5979;50.800;4.904;2023-08-12T06:28:58;2.45;;;1.80;;
11839;SDS011;5979;50.800;4.904;2023-08-12T06:31:24;3.35;;;1.60;;
11839;SDS011;5979;50.800;4.904;2023-08-12T06:33:49;1.70;;;1.60;;
11839;SDS011;5979;50.800;4.904;2023-08-12T06:36:15;1.85;;;1.73;;
11839;SDS011;5979;50.800;4.904;2023-08-12T06:38:41;1.75;;;1.58;;
11839;SDS011;5979;50.800;4.904;2023-08-12T06:41:06;1.58;;;1.50;;
11839;SDS011;5979;50.800;4.904;2023-08-12T06:43:32;1.50;;;1.50;;
11839;SDS011;5979;50.800;4.904;2023-08-12T06:45:58;4.97;;;1.75;;
11839;SDS011;5979;50.800;4.904;2023-08-12T06:48:23;1.60;;;1.60;;
11839;SDS011;5979;50.800;4.904;2023-08-12T06:50:53;1.67;;;1.25;;
11839;SDS011;5979;50.800;4.904;2023-08-12T06:53:20;1.35;;;1.20;;
11839;SDS011;5979;50.800;4.904;2023-08-12T06:55:46;1.95;;;1.27;;
11839;SDS011;5979;50.800;4.904;2023-08-12T06:58:12;1.20;;;1.20;;
11839;SDS011;5979;50.800;4.904;2023-08-12T07:00:39;1.00;;;1.00;;
11839;SDS011;5979;50.800;4.904;2023-08-12T07:03:05;3.15;;;1.20;;
11839;SDS011;5979;50.800;4.904;2023-08-12T07:05:30;1.95;;;1.10;;
11839;SDS011;5979;50.800;4.904;2023-08-12T07:07:56;2.15;;;0.70;;
11839;SDS011;5979;50.800;4.904;2023-08-12T07:10:21;0.80;;;0.80;;
11839;SDS011;5979;50.800;4.904;2023-08-12T07:12:47;0.77;;;0.77;;
11839;SDS011;5979;50.800;4.904;2023-08-12T07:15:13;0.85;;;0.85;;
11839;SDS011;5979;50.800;4.904;2023-08-12T07:17:38;0.82;;;0.70;;
11839;SDS011;5979;50.800;4.904;2023-08-12T07:20:05;0.90;;;0.90;;
11839;SDS011;5979;50.800;4.904;2023-08-12T07:22:31;0.70;;;0.70;;
11839;SDS011;5979;50.800;4.904;2023-08-12T07:24:57;1.05;;;0.70;;
11839;SDS011;5979;50.800;4.904;2023-08-12T07:27:25;0.70;;;0.70;;
11839;SDS011;5979;50.800;4.904;2023-08-12T07:29:51;1.52;;;0.80;;
11839;SDS011;5979;50.800;4.904;2023-08-12T07:32:17;0.57;;;0.57;;
11839;SDS011;5979;50.800;4.904;2023-08-12T07:34:43;0.68;;;0.68;;
11839;SDS011;5979;50.800;4.904;2023-08-12T07:37:09;0.60;;;0.60;;
11839;SDS011;5979;50.800;4.904;2023-08-12T07:39:35;0.90;;;0.75;;
11839;SDS011;5979;50.800;4.904;2023-08-12T07:42:01;0.60;;;0.60;;
11839;SDS011;5979;50.800;4.904;2023-08-12T07:44:26;0.50;;;0.50;;
11839;SDS011;5979;50.800;4.904;2023-08-12T07:46:52;2.65;;;0.47;;
11839;SDS011;5979;50.800;4.904;2023-08-12T07:49:18;0.60;;;0.60;;
11839;SDS011;5979;50.800;4.904;2023-08-12T07:51:43;0.50;;;0.50;;
11839;SDS011;5979;50.800;4.904;2023-08-12T07:54:09;0.30;;;0.30;;
11839;SDS011;5979;50.800;4.904;2023-08-12T07:56:35;0.20;;;0.20;;
11839;SDS011;5979;50.800;4.904;2023-08-12T07:59:00;1.92;;;0.25;;
11839;SDS011;5979;50.800;4.904;2023-08-12T08:01:26;0.73;;;0.43;;
11839;SDS011;5979;50.800;4.904;2023-08-12T08:03:52;0.40;;;0.40;;
11839;SDS011;5979;50.800;4.904;2023-08-12T08:06:17;1.65;;;0.30;;
11839;SDS011;5979;50.800;4.904;2023-08-12T08:08:43;0.30;;;0.30;;
11839;SDS011;5979;50.800;4.904;2023-08-12T08:11:09;1.77;;;0.40;;
11839;SDS011;5979;50.800;4.904;2023-08-12T08:13:34;1.27;;;0.40;;
11839;SDS011;5979;50.800;4.904;2023-08-12T08:16:00;0.90;;;0.40;;
11839;SDS011;5979;50.800;4.904;2023-08-12T08:18:26;0.80;;;0.80;;
11839;SDS011;5979;50.800;4.904;2023-08-12T08:20:51;0.45;;;0.45;;
11839;SDS011;5979;50.800;4.904;2023-08-12T08:23:17;0.60;;;0.60;;
11839;SDS011;5979;50.800;4.904;2023-08-12T08:25:43;0.75;;;0.75;;
11839;SDS011;5979;50.800;4.904;2023-08-12T08:28:08;1.13;;;0.73;;
11839;SDS011;5979;50.800;4.904;2023-08-12T08:30:34;1.10;;;0.90;;
11839;SDS011;5979;50.800;4.904;2023-08-12T08:33:00;0.95;;;0.95;;
11839;SDS011;5979;50.800;4.904;2023-08-12T08:35:25;0.82;;;0.82;;
11839;SDS011;5979;50.800;4.904;2023-08-12T08:37:51;1.85;;;0.90;;
11839;SDS011;5979;50.800;4.904;2023-08-12T08:40:18;0.80;;;0.80;;
11839;SDS011;5979;50.800;4.904;2023-08-12T08:42:43;0.70;;;0.70;;
11839;SDS011;5979;50.800;4.904;2023-08-12T08:45:12;0.80;;;0.80;;
11839;SDS011;5979;50.800;4.904;2023-08-12T08:47:39;0.90;;;0.90;;
11839;SDS011;5979;50.800;4.904;2023-08-12T08:50:06;1.50;;;1.50;;
11839;SDS011;5979;50.800;4.904;2023-08-12T08:52:34;1.95;;;1.88;;
11839;SDS011;5979;50.800;4.904;2023-08-12T08:55:03;2.05;;;1.98;;
11839;SDS011;5979;50.800;4.904;2023-08-12T08:57:29;2.30;;;2.17;;
11839;SDS011;5979;50.800;4.904;2023-08-12T08:59:55;2.05;;;1.95;;
11839;SDS011;5979;50.800;4.904;2023-08-12T09:02:21;2.13;;;2.03;;
11839;SDS011;5979;50.800;4.904;2023-08-12T09:04:48;2.42;;;1.83;;
11839;SDS011;5979;50.800;4.904;2023-08-12T09:07:14;2.20;;;2.00;;
11839;SDS011;5979;50.800;4.904;2023-08-12T09:09:41;2.10;;;1.98;;
11839;SDS011;5979;50.800;4.904;2023-08-12T09:12:11;1.75;;;1.65;;
11839;SDS011;5979;50.800;4.904;2023-08-12T09:14:39;1.80;;;1.70;;
11839;SDS011;5979;50.800;4.904;2023-08-12T09:17:06;1.60;;;1.60;;
11839;SDS011;5979;50.800;4.904;2023-08-12T09:19:32;1.67;;;1.67;;
11839;SDS011;5979;50.800;4.904;2023-08-12T09:21:57;2.20;;;2.10;;
11839;SDS011;5979;50.800;4.904;2023-08-12T09:24:27;2.38;;;1.85;;
11839;SDS011;5979;50.800;4.904;2023-08-12T09:26:53;1.83;;;1.83;;
11839;SDS011;5979;50.800;4.904;2023-08-12T09:29:24;1.83;;;1.77;;
11839;SDS011;5979;50.800;4.904;2023-08-12T09:32:04;1.80;;;1.70;;
11839;SDS011;5979;50.800;4.904;2023-08-12T09:34:32;1.67;;;1.65;;
11839;SDS011;5979;50.800;4.904;2023-08-12T09:36:58;1.30;;;1.30;;
11839;SDS011;5979;50.800;4.904;2023-08-12T09:39:23;1.30;;;1.30;;
11839;SDS011;5979;50.800;4.904;2023-08-12T09:41:49;2.35;;;1.50;;
11839;SDS011;5979;50.800;4.904;2023-08-12T09:44:16;1.58;;;1.00;;
11839;SDS011;5979;50.800;4.904;2023-08-12T09:46:41;0.90;;;0.90;;
11839;SDS011;5979;50.800;4.904;2023-08-12T09:49:07;0.85;;;0.85;;
11839;SDS011;5979;50.800;4.904;2023-08-12T09:51:34;0.82;;;0.82;;
11839;SDS011;5979;50.800;4.904;2023-08-12T09:54:04;1.45;;;1.05;;
11839;SDS011;5979;50.800;4.904;2023-08-12T09:56:31;0.88;;;0.70;;
11839;SDS011;5979;50.800;4.904;2023-08-12T09:59:01;1.00;;;1.00;;
11839;SDS011;5979;50.800;4.904;2023-08-12T10:01:30;0.60;;;0.60;;
11839;SDS011;5979;50.800;4.904;2023-08-12T10:03:57;1.52;;;0.73;;
11839;SDS011;5979;50.800;4.904;2023-08-12T10:06:22;0.88;;;0.70;;
11839;SDS011;5979;50.800;4.904;2023-08-12T10:08:49;3.50;;;0.68;;
11839;SDS011;5979;50.800;4.904;2023-08-12T10:11:15;1.60;;;0.70;;
11839;SDS011;5979;50.800;4.904;2023-08-12T10:13:41;0.80;;;0.80;;
11839;SDS011;5979;50.800;4.904;2023-08-12T10:16:08;2.13;;;0.88;;
11839;SDS011;5979;50.800;4.904;2023-08-12T10:18:34;0.80;;;0.80;;
11839;SDS011;5979;50.800;4.904;2023-08-12T10:21:03;2.83;;;0.88;;
11839;SDS011;5979;50.800;4.904;2023-08-12T10:23:32;2.10;;;0.90;;
11839;SDS011;5979;50.800;4.904;2023-08-12T10:25:58;1.20;;;0.75;;
11839;SDS011;5979;50.800;4.904;2023-08-12T10:28:26;2.17;;;0.82;;
11839;SDS011;5979;50.800;4.904;2023-08-12T10:30:54;2.13;;;0.98;;
11839;SDS011;5979;50.800;4.904;2023-08-12T10:33:21;1.00;;;1.00;;
11839;SDS011;5979;50.800;4.904;2023-08-12T10:35:47;1.80;;;1.10;;
11839;SDS011;5979;50.800;4.904;2023-08-12T10:38:17;0.93;;;0.90;;
11839;SDS011;5979;50.800;4.904;2023-08-12T10:40:44;1.15;;;1.05;;
11839;SDS011;5979;50.800;4.904;2023-08-12T10:43:11;1.30;;;1.20;;
11839;SDS011;5979;50.800;4.904;2023-08-12T10:45:48;1.55;;;0.95;;
11839;SDS011;5979;50.800;4.904;2023-08-12T10:48:24;1.50;;;1.40;;
11839;SDS011;5979;50.800;4.904;2023-08-12T10:50:53;1.20;;;1.10;;
11839;SDS011;5979;50.800;4.904;2023-08-12T10:53:24;1.25;;;1.20;;
11839;SDS011;5979;50.800;4.904;2023-08-12T10:55:58;1.40;;;0.98;;
11839;SDS011;5979;50.800;4.904;2023-08-12T10:58:40;1.75;;;1.20;;
11839;SDS011;5979;50.800;4.904;2023-08-12T11:01:18;1.45;;;1.17;;
11839;SDS011;5979;50.800;4.904;2023-08-12T11:03:45;1.85;;;1.33;;
11839;SDS011;5979;50.800;4.904;2023-08-12T11:06:11;1.75;;;1.10;;
11839;SDS011;5979;50.800;4.904;2023-08-12T11:08:45;1.00;;;0.90;;
11839;SDS011;5979;50.800;4.904;2023-08-12T11:11:23;1.45;;;1.05;;
11839;SDS011;5979;50.800;4.904;2023-08-12T11:13:53;2.05;;;1.20;;
11839;SDS011;5979;50.800;4.904;2023-08-12T11:16:19;1.25;;;1.15;;
11839;SDS011;5979;50.800;4.904;2023-08-12T11:18:59;1.05;;;0.95;;
11839;SDS011;5979;50.800;4.904;2023-08-12T11:21:25;3.08;;;1.23;;
11839;SDS011;5979;50.800;4.904;2023-08-12T11:23:51;1.38;;;1.20;;
11839;SDS011;5979;50.800;4.904;2023-08-12T11:26:20;1.02;;;1.00;;
11839;SDS011;5979;50.800;4.904;2023-08-12T11:28:49;3.53;;;1.40;;
11839;SDS011;5979;50.800;4.904;2023-08-12T11:31:16;3.38;;;1.70;;
11839;SDS011;5979;50.800;4.904;2023-08-12T11:33:42;1.60;;;1.50;;
11839;SDS011;5979;50.800;4.904;2023-08-12T11:36:08;1.95;;;1.15;;
11839;SDS011;5979;50.800;4.904;2023-08-12T11:38:34;3.10;;;1.90;;
11839;SDS011;5979;50.800;4.904;2023-08-12T11:41:00;2.25;;;1.60;;
11839;SDS011;5979;50.800;4.904;2023-08-12T11:43:29;2.42;;;1.83;;
11839;SDS011;5979;50.800;4.904;2023-08-12T11:45:57;2.35;;;1.90;;
11839;SDS011;5979;50.800;4.904;2023-08-12T11:48:24;2.53;;;2.05;;
11839;SDS011;5979;50.800;4.904;2023-08-12T11:50:51;2.50;;;1.58;;
11839;SDS011;5979;50.800;4.904;2023-08-12T11:53:17;3.83;;;1.90;;
11839;SDS011;5979;50.800;4.904;2023-08-12T11:55:43;3.38;;;2.15;;
11839;SDS011;5979;50.800;4.904;2023-08-12T11:58:10;2.55;;;1.40;;
11839;SDS011;5979;50.800;4.904;2023-08-12T12:00:38;1.23;;;1.20;;
11839;SDS011;5979;50.800;4.904;2023-08-12T12:03:04;2.08;;;1.17;;
11839;SDS011;5979;50.800;4.904;2023-08-12T12:05:31;2.75;;;1.48;;
11839;SDS011;5979;50.800;4.904;2023-08-12T12:07:58;3.20;;;1.63;;
11839;SDS011;5979;50.800;4.904;2023-08-12T12:10:31;3.60;;;1.50;;
11839;SDS011;5979;50.800;4.904;2023-08-12T12:12:58;1.55;;;1.40;;
11839;SDS011;5979;50.800;4.904;2023-08-12T12:15:25;3.08;;;1.80;;
11839;SDS011;5979;50.800;4.904;2023-08-12T12:17:51;3.17;;;1.67;;
11839;SDS011;5979;50.800;4.904;2023-08-12T12:20:17;4.07;;;1.70;;
11839;SDS011;5979;50.800;4.904;2023-08-12T12:22:43;1.85;;;1.60;;
11839;SDS011;5979;50.800;4.904;2023-08-12T12:25:11;1.85;;;1.42;;
11839;SDS011;5979;50.800;4.904;2023-08-12T12:27:38;2.00;;;1.38;;
11839;SDS011;5979;50.800;4.904;2023-08-12T12:30:08;2.00;;;1.35;;
11839;SDS011;5979;50.800;4.904;2023-08-12T12:32:34;3.03;;;1.58;;
11839;SDS011;5979;50.800;4.904;2023-08-12T12:35:00;1.90;;;1.38;;
11839;SDS011;5979;50.800;4.904;2023-08-12T12:37:26;2.30;;;1.60;;
11839;SDS011;5979;50.800;4.904;2023-08-12T12:39:52;4.00;;;1.70;;
11839;SDS011;5979;50.800;4.904;2023-08-12T12:42:18;2.75;;;1.40;;
11839;SDS011;5979;50.800;4.904;2023-08-12T12:44:44;3.88;;;1.70;;
11839;SDS011;5979;50.800;4.904;2023-08-12T12:47:09;3.47;;;1.67;;
11839;SDS011;5979;50.800;4.904;2023-08-12T12:49:37;2.00;;;1.90;;
11839;SDS011;5979;50.800;4.904;2023-08-12T12:52:03;1.75;;;1.58;;
11839;SDS011;5979;50.800;4.904;2023-08-12T12:54:29;1.90;;;1.80;;
11839;SDS011;5979;50.800;4.904;2023-08-12T12:56:56;1.98;;;1.75;;
11839;SDS011;5979;50.800;4.904;2023-08-12T12:59:21;2.00;;;1.48;;
11839;SDS011;5979;50.800;4.904;2023-08-12T13:01:48;1.83;;;1.65;;
11839;SDS011;5979;50.800;4.904;2023-08-12T13:04:14;4.20;;;1.95;;
11839;SDS011;5979;50.800;4.904;2023-08-12T13:06:39;1.67;;;1.58;;
11839;SDS011;5979;50.800;4.904;2023-08-12T13:09:05;6.35;;;1.92;;
11839;SDS011;5979;50.800;4.904;2023-08-12T13:11:32;2.00;;;1.80;;
11839;SDS011;5979;50.800;4.904;2023-08-12T13:13:58;2.35;;;1.80;;
11839;SDS011;5979;50.800;4.904;2023-08-12T13:16:24;3.35;;;1.80;;
11839;SDS011;5979;50.800;4.904;2023-08-12T13:18:50;3.42;;;1.70;;
11839;SDS011;5979;50.800;4.904;2023-08-12T13:21:16;2.33;;;1.75;;
11839;SDS011;5979;50.800;4.904;2023-08-12T13:23:41;1.65;;;1.55;;
11839;SDS011;5979;50.800;4.904;2023-08-12T13:26:07;1.75;;;1.45;;
11839;SDS011;5979;50.800;4.904;2023-08-12T13:28:32;4.85;;;1.92;;
11839;SDS011;5979;50.800;4.904;2023-08-12T13:30:59;2.03;;;1.65;;
11839;SDS011;5979;50.800;4.904;2023-08-12T13:33:24;3.28;;;1.40;;
11839;SDS011;5979;50.800;4.904;2023-08-12T13:35:50;2.15;;;1.83;;
11839;SDS011;5979;50.800;4.904;2023-08-12T13:38:16;2.20;;;1.60;;
11839;SDS011;5979;50.800;4.904;2023-08-12T13:40:42;4.05;;;1.67;;
11839;SDS011;5979;50.800;4.904;2023-08-12T13:43:07;3.42;;;1.73;;
11839;SDS011;5979;50.800;4.904;2023-08-12T13:45:33;5.95;;;2.22;;
11839;SDS011;5979;50.800;4.904;2023-08-12T13:47:58;2.40;;;1.88;;
11839;SDS011;5979;50.800;4.904;2023-08-12T13:50:24;2.80;;;1.73;;
11839;SDS011;5979;50.800;4.904;2023-08-12T13:52:50;2.47;;;1.70;;
11839;SDS011;5979;50.800;4.904;2023-08-12T13:55:16;2.65;;;1.80;;
11839;SDS011;5979;50.800;4.904;2023-08-12T13:57:41;2.28;;;1.70;;
11839;SDS011;5979;50.800;4.904;2023-08-12T14:00:07;2.70;;;1.67;;
11839;SDS011;5979;50.800;4.904;2023-08-12T14:02:38;1.88;;;1.67;;
11839;SDS011;5979;50.800;4.904;2023-08-12T14:05:04;1.92;;;1.80;;
11839;SDS011;5979;50.800;4.904;2023-08-12T14:07:30;1.73;;;1.42;;
11839;SDS011;5979;50.800;4.904;2023-08-12T14:09:57;3.25;;;1.60;;
11839;SDS011;5979;50.800;4.904;2023-08-12T14:12:23;2.33;;;1.50;;
11839;SDS011;5979;50.800;4.904;2023-08-12T14:14:49;1.88;;;1.60;;
11839;SDS011;5979;50.800;4.904;2023-08-12T14:17:14;1.70;;;1.60;;
11839;SDS011;5979;50.800;4.904;2023-08-12T14:19:43;3.25;;;1.70;;
11839;SDS011;5979;50.800;4.904;2023-08-12T14:22:12;2.25;;;1.50;;
11839;SDS011;5979;50.800;4.904;2023-08-12T14:24:38;1.80;;;1.70;;
11839;SDS011;5979;50.800;4.904;2023-08-12T14:27:04;3.15;;;1.50;;
11839;SDS011;5979;50.800;4.904;2023-08-12T14:29:29;1.85;;;1.65;;
11839;SDS011;5979;50.800;4.904;2023-08-12T14:31:56;2.10;;;1.50;;
11839;SDS011;5979;50.800;4.904;2023-08-12T14:34:21;3.28;;;1.88;;
11839;SDS011;5979;50.800;4.904;2023-08-12T14:36:47;2.13;;;1.60;;
11839;SDS011;5979;50.800;4.904;2023-08-12T14:39:13;3.83;;;1.80;;
11839;SDS011;5979;50.800;4.904;2023-08-12T14:41:38;3.03;;;1.75;;
11839;SDS011;5979;50.800;4.904;2023-08-12T14:44:04;3.28;;;1.90;;
11839;SDS011;5979;50.800;4.904;2023-08-12T14:46:30;3.58;;;1.98;;
11839;SDS011;5979;50.800;4.904;2023-08-12T14:48:55;2.45;;;1.48;;
11839;SDS011;5979;50.800;4.904;2023-08-12T14:51:21;2.80;;;1.45;;
11839;SDS011;5979;50.800;4.904;2023-08-12T14:53:47;2.17;;;1.75;;
11839;SDS011;5979;50.800;4.904;2023-08-12T14:56:13;2.95;;;2.00;;
11839;SDS011;5979;50.800;4.904;2023-08-12T14:58:39;2.58;;;2.38;;